Time;durP1;ratioP1;P1;durP2;ratioP2;P2;SDS_P1;SDS_P2;PMS_P1;PMS_P2;Temp;Humidity;BMP_temperature;BMP_pressure;BME280_temperature;BME280_humidity;BME280_pressure;Samples;Min_cycle;Max_cycle;Signal;HPM_P1;HPM_P2
2022/07/13 00:00:33;;;;;;;;;;;13.90;99.90;;;;;;5075154;28;19915;-70
2022/07/13 00:02:59;;;;;;;;;;;13.70;99.90;;;;;;5074894;28;19904;-70
2022/07/13 00:05:24;;;;;;;;;;;13.60;99.90;;;;;;5074929;28;20341;-70
2022/07/13 00:07:50;;;;;;;;;;;13.40;99.90;;;;;;5075092;28;19999;-70
2022/07/13 00:10:15;;;;;;;;;;;13.40;99.90;;;;;;5074794;28;19912;-70
2022/07/13 00:12:41;;;;;;;;;;;13.40;99.90;;;;;;5074686;28;19905;-70
2022/07/13 00:15:07;;;;;;;;;;;13.40;99.90;;;;;;5074613;28;19912;-70
2022/07/13 00:17:32;;;;;;;;;;;13.50;99.90;;;;;;5074890;28;20272;-70
2022/07/13 00:19:58;;;;;;;;;;;13.60;99.90;;;;;;5074527;28;20463;-70
2022/07/13 00:22:25;;;;;;;;;;;13.60;99.90;;;;;;5074823;28;19943;-70
2022/07/13 00:24:50;;;;;;;;;;;13.60;99.90;;;;;;5074453;28;19911;-70
2022/07/13 00:27:16;;;;;;;;;;;13.60;99.90;;;;;;5074434;28;20339;-70
2022/07/13 00:29:41;;;;;;;;;;;13.50;99.90;;;;;;5074366;28;19910;-70
2022/07/13 00:32:07;;;;;;;;;;;13.40;99.90;;;;;;5074348;28;19999;-70
2022/07/13 00:34:32;;;;;;;;;;;13.30;99.90;;;;;;5074113;28;19912;-71
2022/07/13 00:36:58;;;;;;;;;;;13.30;99.90;;;;;;5074264;28;19908;-70
2022/07/13 00:39:24;;;;;;;;;;;13.30;99.90;;;;;;5074510;28;19950;-70
2022/07/13 00:41:49;;;;;;;;;;;13.40;99.90;;;;;;5073399;28;19912;-70
2022/07/13 00:44:15;;;;;;;;;;;13.40;99.90;;;;;;5074303;28;19904;-70
2022/07/13 00:46:44;;;;;;;;;;;13.40;99.90;;;;;;5074695;28;20272;-70
2022/07/13 00:49:11;;;;;;;;;;;13.40;99.90;;;;;;5074173;28;19905;-70
2022/07/13 00:51:37;;;;;;;;;;;13.30;99.90;;;;;;5074123;28;19995;-70
2022/07/13 00:54:03;;;;;;;;;;;13.30;99.90;;;;;;5074237;28;20365;-70
2022/07/13 00:56:29;;;;;;;;;;;13.30;99.90;;;;;;5073977;28;19915;-70
2022/07/13 00:58:55;;;;;;;;;;;13.30;99.90;;;;;;5073995;28;19904;-70
2022/07/13 01:01:21;;;;;;;;;;;13.10;99.90;;;;;;5072612;28;20280;-70
2022/07/13 01:03:47;;;;;;;;;;;13.00;99.90;;;;;;5074366;28;19930;-70
2022/07/13 01:06:12;;;;;;;;;;;12.90;99.90;;;;;;5073918;28;19991;-71
2022/07/13 01:08:38;;;;;;;;;;;12.80;99.90;;;;;;5073933;28;20337;-70
2022/07/13 01:11:04;;;;;;;;;;;12.80;99.90;;;;;;5073853;28;19927;-70
2022/07/13 01:13:30;;;;;;;;;;;12.80;99.90;;;;;;5074142;28;20002;-71
2022/07/13 01:15:55;;;;;;;;;;;12.80;99.90;;;;;;5073814;28;19936;-70
2022/07/13 01:18:21;;;;;;;;;;;12.90;99.90;;;;;;5073787;28;19912;-71
2022/07/13 01:20:46;;;;;;;;;;;12.90;99.90;;;;;;5073985;28;19908;-70
2022/07/13 01:23:13;;;;;;;;;;;13.00;99.90;;;;;;5073726;28;19904;-70
2022/07/13 01:25:39;;;;;;;;;;;13.00;99.90;;;;;;5073665;28;19931;-71
2022/07/13 01:28:04;;;;;;;;;;;13.00;99.90;;;;;;5074273;28;19904;-70
2022/07/13 01:30:30;;;;;;;;;;;12.90;99.90;;;;;;5073641;28;20352;-70
2022/07/13 01:32:55;;;;;;;;;;;12.90;99.90;;;;;;5072387;28;19944;-70
2022/07/13 01:35:24;;;;;;;;;;;12.80;99.90;;;;;;5072157;28;19999;-70
2022/07/13 01:37:50;;;;;;;;;;;12.70;99.90;;;;;;5073579;28;19954;-70
2022/07/13 01:40:15;;;;;;;;;;;12.70;99.90;;;;;;5073508;28;19908;-71
2022/07/13 01:42:43;;;;;;;;;;;12.70;99.90;;;;;;5074116;28;20375;-70
2022/07/13 01:45:09;;;;;;;;;;;12.70;99.90;;;;;;5073454;28;19908;-70
2022/07/13 01:47:41;;;;;;;;;;;12.80;99.90;;;;;;5073480;28;20360;-70
2022/07/13 01:50:07;;;;;;;;;;;12.70;99.90;;;;;;5073435;28;19908;-70
2022/07/13 01:52:33;;;;;;;;;;;12.80;99.90;;;;;;5075155;28;19911;-70
2022/07/13 01:54:59;;;;;;;;;;;12.70;99.90;;;;;;5076594;28;19994;-70
2022/07/13 01:57:24;;;;;;;;;;;12.70;99.90;;;;;;5077614;28;19904;-70
2022/07/13 01:59:51;;;;;;;;;;;12.60;99.90;;;;;;5077568;28;19949;-70
2022/07/13 02:02:16;;;;;;;;;;;12.60;99.90;;;;;;5077167;28;19963;-70
2022/07/13 02:04:42;;;;;;;;;;;12.60;99.90;;;;;;5077153;28;19966;-70
2022/07/13 02:07:08;;;;;;;;;;;12.50;99.90;;;;;;5077104;28;19909;-70
2022/07/13 02:09:33;;;;;;;;;;;12.50;99.90;;;;;;5077082;28;19928;-70
2022/07/13 02:11:59;;;;;;;;;;;12.50;99.90;;;;;;5076998;28;19910;-70
2022/07/13 02:14:24;;;;;;;;;;;12.50;99.90;;;;;;5076955;28;19935;-70
2022/07/13 02:16:50;;;;;;;;;;;12.50;99.90;;;;;;5076941;28;19994;-70
2022/07/13 02:19:15;;;;;;;;;;;12.40;99.90;;;;;;5076907;28;20352;-70
2022/07/13 02:21:41;;;;;;;;;;;12.30;99.90;;;;;;5077044;28;19938;-70
2022/07/13 02:24:06;;;;;;;;;;;12.30;99.90;;;;;;5076763;28;19908;-70
2022/07/13 02:26:32;;;;;;;;;;;12.30;99.90;;;;;;5076770;28;20352;-70
2022/07/13 02:28:57;;;;;;;;;;;12.30;99.90;;;;;;5076738;28;19911;-70
2022/07/13 02:31:23;;;;;;;;;;;12.20;99.90;;;;;;5076658;28;19912;-70
2022/07/13 02:33:48;;;;;;;;;;;12.20;99.90;;;;;;5076520;28;19908;-71
2022/07/13 02:36:14;;;;;;;;;;;12.20;99.90;;;;;;5076600;28;19912;-70
2022/07/13 02:38:39;;;;;;;;;;;12.20;99.90;;;;;;5076556;28;19911;-70
2022/07/13 02:41:05;;;;;;;;;;;12.20;99.90;;;;;;5076713;28;20276;-70
2022/07/13 02:43:30;;;;;;;;;;;12.20;99.90;;;;;;5076461;28;19936;-70
2022/07/13 02:45:57;;;;;;;;;;;12.20;99.90;;;;;;5076649;28;19946;-70
2022/07/13 02:48:23;;;;;;;;;;;12.20;99.90;;;;;;5076366;28;19904;-70
2022/07/13 02:50:48;;;;;;;;;;;12.20;99.90;;;;;;5076584;28;19946;-71
2022/07/13 02:53:14;;;;;;;;;;;12.20;99.90;;;;;;5076281;28;19904;-70
2022/07/13 02:55:39;;;;;;;;;;;12.20;99.90;;;;;;5076444;28;20008;-70
2022/07/13 02:58:05;;;;;;;;;;;12.20;99.90;;;;;;5076259;28;19908;-70
2022/07/13 03:00:30;;;;;;;;;;;12.20;99.90;;;;;;5076403;28;19951;-70
2022/07/13 03:02:56;;;;;;;;;;;12.20;99.90;;;;;;5076119;28;20376;-70
2022/07/13 03:05:23;;;;;;;;;;;12.10;99.90;;;;;;5075170;28;19904;-70
2022/07/13 03:07:49;;;;;;;;;;;12.10;99.90;;;;;;5076328;28;19909;-70
2022/07/13 03:10:15;;;;;;;;;;;11.90;99.90;;;;;;5075984;28;19904;-70
2022/07/13 03:12:40;;;;;;;;;;;11.80;99.90;;;;;;5075936;28;19905;-70
2022/07/13 03:15:06;;;;;;;;;;;11.80;99.90;;;;;;5074476;28;19904;-70
2022/07/13 03:17:32;;;;;;;;;;;11.80;99.90;;;;;;5075811;28;20465;-70
2022/07/13 03:19:57;;;;;;;;;;;11.80;99.90;;;;;;5075979;28;19904;-70
2022/07/13 03:22:23;;;;;;;;;;;11.80;99.90;;;;;;5075630;28;19915;-70
2022/07/13 03:24:49;;;;;;;;;;;11.70;99.90;;;;;;5075582;28;19908;-70
2022/07/13 03:27:15;;;;;;;;;;;11.70;99.90;;;;;;5075892;28;20379;-70
2022/07/13 03:29:41;;;;;;;;;;;11.70;99.90;;;;;;5075585;28;19908;-70
2022/07/13 03:32:06;;;;;;;;;;;11.60;99.90;;;;;;5075842;28;20268;-70
2022/07/13 03:34:32;;;;;;;;;;;11.60;99.90;;;;;;5075359;28;19912;-70
2022/07/13 03:36:57;;;;;;;;;;;11.70;99.90;;;;;;5075735;28;19911;-70
2022/07/13 03:39:23;;;;;;;;;;;11.70;99.90;;;;;;5076002;28;19911;-70
2022/07/13 03:41:48;;;;;;;;;;;11.70;99.90;;;;;;5075214;28;19916;-70
2022/07/13 03:44:14;;;;;;;;;;;11.70;99.90;;;;;;5075594;28;19981;-70
2022/07/13 03:46:40;;;;;;;;;;;11.70;99.90;;;;;;5075476;28;19911;-70
2022/07/13 03:49:06;;;;;;;;;;;11.70;99.90;;;;;;5075197;28;19904;-70
2022/07/13 03:51:31;;;;;;;;;;;11.60;99.90;;;;;;5075139;28;20347;-70
2022/07/13 03:53:57;;;;;;;;;;;11.60;99.90;;;;;;5073822;28;19939;-70
2022/07/13 03:56:22;;;;;;;;;;;11.60;99.90;;;;;;5075350;28;19978;-70
2022/07/13 03:58:48;;;;;;;;;;;11.60;99.90;;;;;;5074966;28;19942;-70
2022/07/13 04:01:13;;;;;;;;;;;11.60;99.90;;;;;;5075131;28;19909;-71
2022/07/13 04:03:39;;;;;;;;;;;11.60;99.90;;;;;;5075113;28;20379;-71
2022/07/13 04:06:05;;;;;;;;;;;11.60;99.90;;;;;;5075115;28;19995;-70
2022/07/13 04:08:30;;;;;;;;;;;11.60;99.90;;;;;;5075376;28;19991;-71
2022/07/13 04:10:56;;;;;;;;;;;11.60;99.90;;;;;;5074963;28;20345;-71
2022/07/13 04:13:22;;;;;;;;;;;11.60;99.90;;;;;;5074564;28;19905;-70
2022/07/13 04:15:47;;;;;;;;;;;11.60;99.90;;;;;;5074311;28;19904;-70
2022/07/13 04:18:13;;;;;;;;;;;11.60;99.90;;;;;;5074003;28;19911;-71
2022/07/13 04:20:38;;;;;;;;;;;11.50;99.90;;;;;;5073948;28;19912;-71
2022/07/13 04:23:04;;;;;;;;;;;11.60;99.90;;;;;;5074024;28;19904;-71
2022/07/13 04:25:29;;;;;;;;;;;11.50;99.90;;;;;;5072487;28;20000;-71
2022/07/13 04:27:55;;;;;;;;;;;11.60;99.90;;;;;;5074108;28;20019;-71
2022/07/13 04:30:20;;;;;;;;;;;11.60;99.90;;;;;;5073733;28;20029;-71
2022/07/13 04:32:46;;;;;;;;;;;11.60;99.90;;;;;;5073676;28;19904;-71
2022/07/13 04:35:11;;;;;;;;;;;11.70;99.90;;;;;;5073241;28;19912;-71
2022/07/13 04:37:37;;;;;;;;;;;11.70;99.90;;;;;;5073569;28;19911;-71
2022/07/13 04:40:03;;;;;;;;;;;11.70;99.90;;;;;;5073862;28;19943;-71
2022/07/13 04:42:29;;;;;;;;;;;11.70;99.90;;;;;;5073458;28;20288;-71
2022/07/13 04:44:54;;;;;;;;;;;11.80;99.90;;;;;;5073347;28;20400;-71
2022/07/13 04:47:20;;;;;;;;;;;11.80;99.90;;;;;;5073421;28;19905;-71
2022/07/13 04:49:45;;;;;;;;;;;11.80;99.90;;;;;;5073772;28;19949;-71
2022/07/13 04:52:11;;;;;;;;;;;11.80;99.90;;;;;;5073380;28;19995;-71
2022/07/13 04:54:36;;;;;;;;;;;11.80;99.90;;;;;;5073517;28;19905;-70
2022/07/13 04:57:02;;;;;;;;;;;11.80;99.90;;;;;;5073637;28;19917;-70
2022/07/13 04:59:27;;;;;;;;;;;11.80;99.90;;;;;;5073397;28;19912;-70
2022/07/13 05:01:53;;;;;;;;;;;11.80;99.90;;;;;;5073401;28;19908;-71
2022/07/13 05:04:19;;;;;;;;;;;11.90;99.90;;;;;;5072893;28;24084;-71
2022/07/13 05:06:44;;;;;;;;;;;11.90;99.90;;;;;;5073018;28;20267;-71
2022/07/13 05:09:10;;;;;;;;;;;11.90;99.90;;;;;;5073403;28;19905;-71
2022/07/13 05:11:36;;;;;;;;;;;12.00;99.90;;;;;;5073016;28;20315;-71
2022/07/13 05:14:01;;;;;;;;;;;12.00;99.90;;;;;;5072730;28;24062;-71
2022/07/13 05:16:27;;;;;;;;;;;12.00;99.90;;;;;;5073296;28;19916;-71
2022/07/13 05:18:52;;;;;;;;;;;12.00;99.90;;;;;;5073562;28;19908;-71
2022/07/13 05:21:18;;;;;;;;;;;12.00;99.90;;;;;;5073130;28;19965;-71
2022/07/13 05:23:43;;;;;;;;;;;12.10;99.90;;;;;;5073089;28;20455;-71
2022/07/13 05:26:09;;;;;;;;;;;12.10;99.90;;;;;;5072344;28;19904;-71
2022/07/13 05:28:35;;;;;;;;;;;12.20;99.90;;;;;;5078736;28;19904;-71
2022/07/13 05:31:00;;;;;;;;;;;12.20;99.90;;;;;;5079536;28;19904;-71
2022/07/13 05:33:26;;;;;;;;;;;12.30;99.90;;;;;;5078798;28;19915;-71
2022/07/13 05:35:51;;;;;;;;;;;12.30;99.90;;;;;;5078906;28;19924;-71
2022/07/13 05:38:17;;;;;;;;;;;12.30;99.90;;;;;;5078946;28;20276;-71
2022/07/13 05:40:42;;;;;;;;;;;12.40;99.90;;;;;;5079290;28;20345;-71
2022/07/13 05:43:08;;;;;;;;;;;12.40;99.90;;;;;;5079281;28;19958;-71
2022/07/13 05:45:34;;;;;;;;;;;12.50;99.90;;;;;;5078716;28;19911;-71
2022/07/13 05:47:59;;;;;;;;;;;12.50;99.90;;;;;;5079010;28;19905;-71
2022/07/13 05:50:25;;;;;;;;;;;12.60;99.90;;;;;;5079092;28;19904;-71
2022/07/13 05:52:51;;;;;;;;;;;12.70;99.90;;;;;;5078520;28;20322;-71
2022/07/13 05:55:17;;;;;;;;;;;12.80;99.90;;;;;;5078507;28;19991;-71
2022/07/13 05:57:44;;;;;;;;;;;13.00;99.90;;;;;;5079167;28;20339;-71
2022/07/13 06:00:11;;;;;;;;;;;13.10;99.90;;;;;;5078775;28;19908;-71
2022/07/13 06:02:36;;;;;;;;;;;13.20;99.90;;;;;;5078571;28;19904;-71
2022/07/13 06:05:02;;;;;;;;;;;13.30;99.90;;;;;;5078374;28;19908;-71
2022/07/13 06:07:28;;;;;;;;;;;13.40;99.90;;;;;;5077354;28;19948;-71
2022/07/13 06:09:58;;;;;;;;;;;13.50;99.90;;;;;;5077003;28;24127;-71
2022/07/13 06:12:27;;;;;;;;;;;13.60;99.90;;;;;;5078693;28;19908;-71
2022/07/13 06:14:53;;;;;;;;;;;13.70;99.90;;;;;;5078492;28;20038;-71
2022/07/13 06:17:19;;;;;;;;;;;13.80;99.90;;;;;;5079341;28;20359;-71
2022/07/13 06:19:44;;;;;;;;;;;13.90;99.90;;;;;;5078602;28;19943;-71
2022/07/13 06:22:10;;;;;;;;;;;14.00;99.90;;;;;;5078789;28;19914;-71
2022/07/13 06:24:36;;;;;;;;;;;14.10;99.90;;;;;;5078700;28;24069;-71
2022/07/13 06:27:01;;;;;;;;;;;14.20;99.90;;;;;;5078934;28;19904;-71
2022/07/13 06:29:27;;;;;;;;;;;14.40;99.90;;;;;;5079215;28;19919;-71
2022/07/13 06:31:52;;;;;;;;;;;14.50;99.90;;;;;;5079157;28;19948;-71
2022/07/13 06:34:18;;;;;;;;;;;14.60;99.90;;;;;;5079057;28;19966;-71
2022/07/13 06:36:44;;;;;;;;;;;14.70;99.90;;;;;;5079156;28;19904;-71
2022/07/13 06:39:09;;;;;;;;;;;14.80;99.90;;;;;;5075115;28;19911;-71
2022/07/13 06:41:35;;;;;;;;;;;14.90;99.90;;;;;;5074564;28;19915;-71
2022/07/13 06:44:01;;;;;;;;;;;14.90;99.90;;;;;;5075499;28;19955;-71
2022/07/13 06:46:26;;;;;;;;;;;15.00;99.90;;;;;;5075696;28;19927;-71
2022/07/13 06:48:52;;;;;;;;;;;15.10;99.90;;;;;;5075877;28;20344;-70
2022/07/13 06:51:17;;;;;;;;;;;15.20;99.90;;;;;;5075640;28;19904;-71
2022/07/13 06:53:43;;;;;;;;;;;15.30;99.90;;;;;;5075341;28;20380;-71
2022/07/13 06:56:09;;;;;;;;;;;15.50;99.90;;;;;;5075777;28;20371;-71
2022/07/13 06:58:34;;;;;;;;;;;15.70;99.90;;;;;;5075686;28;19995;-71
2022/07/13 07:01:00;;;;;;;;;;;15.80;99.90;;;;;;5075641;28;19914;-71
2022/07/13 07:03:25;;;;;;;;;;;16.00;99.90;;;;;;5075899;28;20034;-71
2022/07/13 07:05:51;;;;;;;;;;;16.10;99.90;;;;;;5075789;28;20328;-71
2022/07/13 07:08:17;;;;;;;;;;;16.30;99.90;;;;;;5076054;28;19904;-71
2022/07/13 07:10:43;;;;;;;;;;;16.40;99.90;;;;;;5075988;28;19970;-71
2022/07/13 07:13:08;;;;;;;;;;;16.50;99.90;;;;;;5076239;28;19934;-71
2022/07/13 07:15:35;;;;;;;;;;;16.70;99.90;;;;;;5075815;28;19910;-71
2022/07/13 07:18:00;;;;;;;;;;;16.90;99.90;;;;;;5075823;28;19904;-71
2022/07/13 07:20:26;;;;;;;;;;;17.00;99.90;;;;;;5075960;28;19957;-71
2022/07/13 07:22:51;;;;;;;;;;;17.20;99.90;;;;;;5076048;28;20002;-71
2022/07/13 07:25:18;;;;;;;;;;;17.30;99.90;;;;;;5075629;28;20360;-71
2022/07/13 07:27:43;;;;;;;;;;;17.40;99.90;;;;;;5076226;28;19904;-71
2022/07/13 07:30:09;;;;;;;;;;;17.60;99.90;;;;;;5075891;28;19988;-71
2022/07/13 07:32:35;;;;;;;;;;;17.80;99.90;;;;;;5075592;28;20011;-71
2022/07/13 07:35:00;;;;;;;;;;;17.90;99.90;;;;;;5075961;28;19966;-71
2022/07/13 07:37:26;;;;;;;;;;;18.10;99.90;;;;;;5075478;28;19908;-71
2022/07/13 07:39:51;;;;;;;;;;;18.30;99.90;;;;;;5075417;28;19905;-71
2022/07/13 07:42:17;;;;;;;;;;;18.40;99.90;;;;;;5075336;28;19912;-71
2022/07/13 07:44:43;;;;;;;;;;;18.60;99.90;;;;;;5075555;28;19905;-70
2022/07/13 07:47:09;;;;;;;;;;;18.70;99.90;;;;;;5074046;28;19908;-71
2022/07/13 07:49:35;;;;;;;;;;;18.80;99.90;;;;;;5073834;28;19950;-71
2022/07/13 07:52:00;;;;;;;;;;;19.00;99.90;;;;;;5075023;28;19991;-70
2022/07/13 07:54:26;;;;;;;;;;;19.10;99.90;;;;;;5075100;28;19908;-71
2022/07/13 07:56:51;;;;;;;;;;;19.30;99.90;;;;;;5073847;28;20257;-71
2022/07/13 07:59:17;;;;;;;;;;;19.50;99.90;;;;;;5075015;28;19912;-71
2022/07/13 08:01:42;;;;;;;;;;;19.60;99.90;;;;;;5074963;28;19908;-71
2022/07/13 08:04:08;;;;;;;;;;;19.80;99.90;;;;;;5074864;28;19904;-71
2022/07/13 08:06:34;;;;;;;;;;;20.00;99.90;;;;;;5074860;28;19905;-70
2022/07/13 08:08:59;;;;;;;;;;;20.10;99.90;;;;;;5074771;28;20004;-70
2022/07/13 08:11:26;;;;;;;;;;;20.30;99.80;;;;;;5073489;28;20432;-70
2022/07/13 08:13:52;;;;;;;;;;;20.50;99.40;;;;;;5074721;28;19915;-71
2022/07/13 08:16:18;;;;;;;;;;;20.60;98.60;;;;;;5074873;28;20332;-70
2022/07/13 08:18:44;;;;;;;;;;;20.80;98.40;;;;;;5074770;28;19910;-70
2022/07/13 08:21:09;;;;;;;;;;;20.80;97.50;;;;;;5074554;28;19912;-70
2022/07/13 08:26:20;;;;;;;;;;;21.10;96.40;;;;;;5074702;28;19954;-70
2022/07/13 08:28:46;;;;;;;;;;;21.30;95.30;;;;;;5072936;28;20269;-71
2022/07/13 08:31:12;;;;;;;;;;;21.50;94.60;;;;;;5074264;28;19904;-70
2022/07/13 08:39:06;;;;;;;;;;;21.90;94.20;;;;;;5074261;28;20011;-70
2022/07/13 08:41:32;;;;;;;;;;;22.10;93.70;;;;;;5074549;28;19998;-70
2022/07/13 08:43:58;;;;;;;;;;;22.20;92.30;;;;;;5074112;28;20382;-70
2022/07/13 08:46:24;;;;;;;;;;;22.40;91.30;;;;;;5074086;28;19904;-70
2022/07/13 08:48:53;;;;;;;;;;;22.50;90.90;;;;;;5074188;28;19904;-70
2022/07/13 08:51:18;;;;;;;;;;;22.70;88.80;;;;;;5074063;28;20330;-70
2022/07/13 08:53:44;;;;;;;;;;;22.80;88.70;;;;;;5074304;28;19904;-70
2022/07/13 08:56:10;;;;;;;;;;;22.90;86.40;;;;;;5074044;28;19959;-70
2022/07/13 08:58:36;;;;;;;;;;;22.90;84.50;;;;;;5074344;28;20276;-70
2022/07/13 09:01:02;;;;;;;;;;;23.00;83.60;;;;;;5073872;28;19935;-70
2022/07/13 09:03:31;;;;;;;;;;;23.10;78.80;;;;;;5073665;28;20292;-70
2022/07/13 09:05:58;;;;;;;;;;;23.20;80.30;;;;;;5074033;28;19911;-70
2022/07/13 09:08:24;;;;;;;;;;;23.30;76.50;;;;;;5073776;28;20333;-70
2022/07/13 09:10:54;;;;;;;;;;;23.40;71.60;;;;;;5072600;28;19951;-70
2022/07/13 09:13:44;;;;;;;;;;;23.50;72.90;;;;;;5073721;28;19916;-70
2022/07/13 09:16:18;;;;;;;;;;;23.60;75.40;;;;;;5071390;28;19915;-70
2022/07/13 09:18:45;;;;;;;;;;;23.70;74.70;;;;;;5074084;28;19929;-70
2022/07/13 09:21:11;;;;;;;;;;;23.90;76.70;;;;;;5073994;28;19908;-70
2022/07/13 09:23:36;;;;;;;;;;;24.00;75.10;;;;;;5073570;28;19904;-70
2022/07/13 09:26:02;;;;;;;;;;;24.20;74.10;;;;;;5073638;28;20445;-70
2022/07/13 09:28:28;;;;;;;;;;;24.30;73.80;;;;;;5073712;28;20031;-70
2022/07/13 09:30:59;;;;;;;;;;;24.40;76.60;;;;;;5073982;28;19940;-70
2022/07/13 09:33:35;;;;;;;;;;;24.50;75.00;;;;;;5073553;28;19908;-71
2022/07/13 09:36:14;;;;;;;;;;;24.60;72.80;;;;;;5073904;28;19915;-69
2022/07/13 09:38:41;;;;;;;;;;;24.70;74.60;;;;;;5072575;28;19934;-70
2022/07/13 09:41:27;;;;;;;;;;;24.90;72.60;;;;;;5073995;28;19914;-70
2022/07/13 09:46:37;;;;;;;;;;;24.90;68.60;;;;;;5073549;28;20422;-71
2022/07/13 09:49:03;;;;;;;;;;;25.10;69.00;;;;;;5073598;28;19912;-70
2022/07/13 09:51:29;;;;;;;;;;;25.10;67.60;;;;;;5073512;28;19905;-69
2022/07/13 09:53:58;;;;;;;;;;;25.10;65.10;;;;;;5073461;28;19905;-70
2022/07/13 09:56:24;;;;;;;;;;;25.20;66.40;;;;;;5073738;28;20372;-70
2022/07/13 09:58:51;;;;;;;;;;;25.30;59.60;;;;;;5073671;28;19909;-70
2022/07/13 10:01:16;;;;;;;;;;;25.40;62.70;;;;;;5071981;28;20391;-70
2022/07/13 10:03:43;;;;;;;;;;;25.40;59.40;;;;;;5073939;28;19905;-70
2022/07/13 10:06:08;;;;;;;;;;;25.50;61.30;;;;;;5073391;28;19908;-69
2022/07/13 10:08:34;;;;;;;;;;;25.40;59.00;;;;;;5073496;28;19927;-70
2022/07/13 10:11:00;;;;;;;;;;;25.50;62.30;;;;;;5073316;28;19991;-69
2022/07/13 10:13:26;;;;;;;;;;;25.60;61.00;;;;;;5074410;28;19911;-69
2022/07/13 10:15:51;;;;;;;;;;;25.50;58.30;;;;;;5076956;28;20415;-70
2022/07/13 10:18:20;;;;;;;;;;;25.60;58.00;;;;;;5075827;28;20380;-69
2022/07/13 10:20:49;;;;;;;;;;;25.70;58.30;;;;;;5076748;28;19951;-69
2022/07/13 10:23:30;;;;;;;;;;;25.70;58.40;;;;;;5076737;28;20011;-70
2022/07/13 10:25:55;;;;;;;;;;;25.70;58.00;;;;;;5075829;28;19995;-70
2022/07/13 10:28:21;;;;;;;;;;;25.80;58.20;;;;;;5076716;28;19935;-69
2022/07/13 10:30:49;;;;;;;;;;;25.90;58.00;;;;;;5075306;28;19915;-69
2022/07/13 10:33:18;;;;;;;;;;;26.00;60.30;;;;;;5076747;28;20848;-69
2022/07/13 10:35:51;;;;;;;;;;;26.20;59.50;;;;;;5076356;28;19946;-69
2022/07/13 10:38:17;;;;;;;;;;;26.40;59.80;;;;;;5075164;28;19939;-69
2022/07/13 10:40:43;;;;;;;;;;;26.40;55.50;;;;;;5075274;28;20356;-69
2022/07/13 10:43:09;;;;;;;;;;;26.50;54.30;;;;;;5076471;28;19953;-70
2022/07/13 10:45:41;;;;;;;;;;;26.60;57.40;;;;;;5076331;28;20280;-69
2022/07/13 10:48:34;;;;;;;;;;;26.50;54.20;;;;;;5076373;28;19912;-69
2022/07/13 10:51:00;;;;;;;;;;;26.50;56.60;;;;;;5074860;28;20284;-70
2022/07/13 10:53:54;;;;;;;;;;;26.50;58.40;;;;;;5076218;28;19904;-69
2022/07/13 10:56:20;;;;;;;;;;;26.40;58.20;;;;;;5075803;28;19927;-69
2022/07/13 10:58:47;;;;;;;;;;;26.50;57.40;;;;;;5074837;28;20045;-70
2022/07/13 11:01:32;;;;;;;;;;;26.60;59.90;;;;;;5076018;28;19908;-69
2022/07/13 11:03:58;;;;;;;;;;;26.60;60.70;;;;;;5075897;28;19912;-69
2022/07/13 11:06:24;;;;;;;;;;;26.60;59.60;;;;;;5075906;28;19904;-69
2022/07/13 11:09:08;;;;;;;;;;;26.70;60.10;;;;;;5075830;28;20353;-69
2022/07/13 11:11:33;;;;;;;;;;;26.90;56.60;;;;;;5071052;28;20253;-69
2022/07/13 11:13:59;;;;;;;;;;;27.20;55.20;;;;;;5075752;28;19911;-69
2022/07/13 11:16:43;;;;;;;;;;;27.30;57.70;;;;;;5075635;28;19904;-69
2022/07/13 11:19:08;;;;;;;;;;;27.30;54.10;;;;;;5075801;28;19911;-69
2022/07/13 11:21:54;;;;;;;;;;;27.30;52.50;;;;;;5075532;28;19908;-69
2022/07/13 11:27:11;;;;;;;;;;;27.60;51.40;;;;;;5075580;28;19958;-69
2022/07/13 11:29:36;;;;;;;;;;;27.80;49.50;;;;;;5075628;28;19911;-69
2022/07/13 11:32:03;;;;;;;;;;;28.10;51.40;;;;;;5075692;28;19999;-69
2022/07/13 11:34:28;;;;;;;;;;;28.10;50.50;;;;;;5075287;28;19912;-69
2022/07/13 11:36:55;;;;;;;;;;;27.90;49.40;;;;;;5075377;28;19909;-69
2022/07/13 11:39:22;;;;;;;;;;;27.80;51.50;;;;;;5075211;28;19904;-70
2022/07/13 11:41:47;;;;;;;;;;;27.90;48.50;;;;;;5075199;28;20002;-70
2022/07/13 11:44:13;;;;;;;;;;;28.00;47.70;;;;;;5075289;28;20456;-69
2022/07/13 11:46:38;;;;;;;;;;;28.00;46.50;;;;;;5075340;28;20371;-70
2022/07/13 11:49:05;;;;;;;;;;;28.10;47.30;;;;;;5075126;28;19931;-69
2022/07/13 11:51:31;;;;;;;;;;;28.20;46.30;;;;;;5075083;28;19954;-69
2022/07/13 11:54:07;;;;;;;;;;;28.30;44.90;;;;;;5074855;28;19904;-69
2022/07/13 11:56:32;;;;;;;;;;;28.30;47.60;;;;;;5075015;28;20308;-69
2022/07/13 11:58:58;;;;;;;;;;;28.30;46.90;;;;;;5075447;28;19904;-73
2022/07/13 12:01:23;;;;;;;;;;;28.30;44.00;;;;;;5074791;28;20012;-72
2022/07/13 12:03:49;;;;;;;;;;;28.40;42.60;;;;;;5074745;28;19914;-71
2022/07/13 12:06:15;;;;;;;;;;;28.40;45.30;;;;;;5074800;28;19911;-72
2022/07/13 12:08:41;;;;;;;;;;;28.50;44.60;;;;;;5074925;28;20314;-72
2022/07/13 12:11:08;;;;;;;;;;;28.60;47.30;;;;;;5069964;28;19927;-71
2022/07/13 12:13:35;;;;;;;;;;;28.70;46.00;;;;;;5068139;28;19904;-71
2022/07/13 12:16:01;;;;;;;;;;;28.80;44.90;;;;;;5068248;28;19908;-72
2022/07/13 12:18:27;;;;;;;;;;;28.90;44.10;;;;;;5073268;28;19904;-73
2022/07/13 12:20:52;;;;;;;;;;;28.90;43.00;;;;;;5073943;28;20287;-70
2022/07/13 12:23:18;;;;;;;;;;;28.90;45.30;;;;;;5073955;28;20357;-69
2022/07/13 12:25:44;;;;;;;;;;;28.90;44.30;;;;;;5073990;28;19905;-73
2022/07/13 12:28:11;;;;;;;;;;;29.00;43.60;;;;;;5074298;28;19910;-71
2022/07/13 12:30:38;;;;;;;;;;;29.10;44.40;;;;;;5074528;28;19908;-71
2022/07/13 12:33:09;;;;;;;;;;;29.00;44.50;;;;;;5074407;28;19958;-71
2022/07/13 12:35:38;;;;;;;;;;;29.10;45.90;;;;;;5074254;28;19985;-71
2022/07/13 12:38:05;;;;;;;;;;;29.10;45.70;;;;;;5073593;28;19905;-71
2022/07/13 12:40:43;;;;;;;;;;;29.10;44.40;;;;;;5074702;28;19905;-71
2022/07/13 12:43:28;;;;;;;;;;;29.20;45.40;;;;;;5074182;28;20407;-73
2022/07/13 12:45:54;;;;;;;;;;;29.20;42.70;;;;;;5074140;28;19904;-71
2022/07/13 12:48:22;;;;;;;;;;;29.10;43.60;;;;;;5074411;28;19908;-71
2022/07/13 12:50:56;;;;;;;;;;;29.10;45.80;;;;;;5074131;28;19905;-72
2022/07/13 12:53:22;;;;;;;;;;;29.10;46.10;;;;;;5074243;28;19905;-71
2022/07/13 12:55:51;;;;;;;;;;;29.20;45.30;;;;;;5073783;28;19931;-71
2022/07/13 12:58:17;;;;;;;;;;;29.30;45.80;;;;;;5074047;28;19905;-72
2022/07/13 13:00:42;;;;;;;;;;;29.50;46.50;;;;;;5074410;28;20372;-71
2022/07/13 13:03:08;;;;;;;;;;;29.80;50.40;;;;;;5073980;28;20470;-71
2022/07/13 13:05:35;;;;;;;;;;;30.00;45.00;;;;;;5073924;28;19904;-73
2022/07/13 13:08:01;;;;;;;;;;;30.10;44.70;;;;;;5074220;28;19992;-71
2022/07/13 13:10:29;;;;;;;;;;;30.30;44.30;;;;;;5073908;28;19954;-71
2022/07/13 13:12:54;;;;;;;;;;;30.40;45.90;;;;;;5073870;28;19919;-71
2022/07/13 13:15:20;;;;;;;;;;;30.50;43.60;;;;;;5074068;28;19904;-72
2022/07/13 13:17:45;;;;;;;;;;;30.50;44.70;;;;;;5072591;28;20003;-73
2022/07/13 13:20:11;;;;;;;;;;;30.40;44.60;;;;;;5074044;28;20382;-71
2022/07/13 13:22:36;;;;;;;;;;;30.20;45.60;;;;;;5073684;28;19908;-71
2022/07/13 13:25:02;;;;;;;;;;;30.10;44.50;;;;;;5074209;28;19947;-71
2022/07/13 13:27:28;;;;;;;;;;;30.10;45.40;;;;;;5074274;28;20260;-71
2022/07/13 13:32:37;;;;;;;;;;;30.10;44.90;;;;;;5074002;28;19973;-71
2022/07/13 13:35:03;;;;;;;;;;;30.00;44.70;;;;;;5073650;28;20325;-73
2022/07/13 13:37:29;;;;;;;;;;;30.00;44.20;;;;;;5073649;28;19944;-71
2022/07/13 13:39:54;;;;;;;;;;;29.90;42.20;;;;;;5073608;28;20372;-71
2022/07/13 13:42:20;;;;;;;;;;;29.80;42.60;;;;;;5072562;28;20264;-71
2022/07/13 13:44:46;;;;;;;;;;;29.80;44.60;;;;;;5073385;28;19983;-71
2022/07/13 13:47:11;;;;;;;;;;;29.90;45.80;;;;;;5069526;28;19904;-71
2022/07/13 13:49:37;;;;;;;;;;;29.80;43.90;;;;;;5075922;28;19904;-71
2022/07/13 13:52:03;;;;;;;;;;;29.80;44.10;;;;;;5077140;28;19909;-74
2022/07/13 13:54:29;;;;;;;;;;;29.90;44.30;;;;;;5077344;28;20276;-70
2022/07/13 13:56:54;;;;;;;;;;;30.00;45.20;;;;;;5077280;28;19904;-71
2022/07/13 13:59:20;;;;;;;;;;;30.00;45.50;;;;;;5077234;28;19904;-73
2022/07/13 14:01:46;;;;;;;;;;;30.00;43.40;;;;;;5077190;28;19995;-70
2022/07/13 14:04:11;;;;;;;;;;;30.10;44.00;;;;;;5070589;28;19905;-72
2022/07/13 14:06:37;;;;;;;;;;;30.10;42.90;;;;;;5076832;28;19904;-72
2022/07/13 14:09:02;;;;;;;;;;;30.00;43.70;;;;;;5077081;28;20291;-72
2022/07/13 14:11:28;;;;;;;;;;;30.00;44.10;;;;;;5076912;28;19960;-72
2022/07/13 14:13:54;;;;;;;;;;;29.90;40.40;;;;;;5076794;28;19904;-72
2022/07/13 14:16:20;;;;;;;;;;;30.00;41.40;;;;;;5075505;28;19911;-72
2022/07/13 14:18:45;;;;;;;;;;;30.10;41.90;;;;;;5076718;28;19904;-74
2022/07/13 14:21:11;;;;;;;;;;;30.20;39.50;;;;;;5076406;28;19959;-71
2022/07/13 14:23:36;;;;;;;;;;;30.30;42.70;;;;;;5076611;28;19991;-72
2022/07/13 14:26:02;;;;;;;;;;;30.20;44.40;;;;;;5076625;28;19946;-71
2022/07/13 14:28:28;;;;;;;;;;;30.20;44.40;;;;;;5076693;28;19904;-72